sensor_id;sensor_type;location;lat;lon;timestamp;pressure;altitude;pressure_sealevel;temperature;humidity
52291;BME280;39663;45.432;28.050;2023-03-01T00:00:04;102494.36;;;8.63;47.66
52291;BME280;39663;45.432;28.050;2023-03-01T00:00:36;102495.11;;;8.95;46.87
52291;BME280;39663;45.432;28.050;2023-03-01T00:01:10;102492.96;;;8.63;45.73
52291;BME280;39663;45.432;28.050;2023-03-01T00:01:44;102490.99;;;8.96;44.52
52291;BME280;39663;45.432;28.050;2023-03-01T00:02:15;102492.06;;;8.75;45.39
52291;BME280;39663;45.432;28.050;2023-03-01T00:02:53;102488.15;;;8.71;45.97
52291;BME280;39663;45.432;28.050;2023-03-01T00:03:24;102488.03;;;8.75;47.42
52291;BME280;39663;45.432;28.050;2023-03-01T00:03:57;102482.15;;;8.31;45.05
52291;BME280;39663;45.432;28.050;2023-03-01T00:04:29;102479.96;;;8.36;46.49
52291;BME280;39663;45.432;28.050;2023-03-01T00:05:01;102479.05;;;8.86;46.61
52291;BME280;39663;45.432;28.050;2023-03-01T00:05:33;102478.25;;;8.45;48.06
52291;BME280;39663;45.432;28.050;2023-03-01T00:06:05;102476.60;;;8.57;47.00
52291;BME280;39663;45.432;28.050;2023-03-01T00:06:37;102477.50;;;8.49;47.92
52291;BME280;39663;45.432;28.050;2023-03-01T00:07:10;102478.99;;;8.19;46.33
52291;BME280;39663;45.432;28.050;2023-03-01T00:07:42;102481.15;;;8.30;47.66
52291;BME280;39663;45.432;28.050;2023-03-01T00:08:15;102482.42;;;8.69;47.41
52291;BME280;39663;45.432;28.050;2023-03-01T00:08:47;102482.48;;;8.75;46.83
52291;BME280;39663;45.432;28.050;2023-03-01T00:09:19;102482.96;;;8.94;45.18
52291;BME280;39663;45.432;28.050;2023-03-01T00:09:52;102485.15;;;8.74;46.51
52291;BME280;39663;45.432;28.050;2023-03-01T00:10:24;102484.23;;;8.99;45.28
52291;BME280;39663;45.432;28.050;2023-03-01T00:11:05;102485.52;;;8.87;44.61
52291;BME280;39663;45.432;28.050;2023-03-01T00:11:38;102487.53;;;8.81;44.36
52291;BME280;39663;45.432;28.050;2023-03-01T00:12:09;102488.57;;;8.85;44.46
52291;BME280;39663;45.432;28.050;2023-03-01T00:12:41;102486.75;;;9.06;43.97
52291;BME280;39663;45.432;28.050;2023-03-01T00:13:12;102488.73;;;7.93;45.93
52291;BME280;39663;45.432;28.050;2023-03-01T00:13:46;102490.56;;;8.54;47.30
52291;BME280;39663;45.432;28.050;2023-03-01T00:14:17;102488.65;;;8.49;46.59
52291;BME280;39663;45.432;28.050;2023-03-01T00:14:49;102487.97;;;7.41;46.64
52291;BME280;39663;45.432;28.050;2023-03-01T00:15:21;102488.86;;;7.81;49.07
52291;BME280;39663;45.432;28.050;2023-03-01T00:15:52;102490.05;;;7.97;48.83
52291;BME280;39663;45.432;28.050;2023-03-01T00:16:26;102489.02;;;8.33;48.23
52291;BME280;39663;45.432;28.050;2023-03-01T00:16:58;102485.29;;;8.47;47.55
52291;BME280;39663;45.432;28.050;2023-03-01T00:17:29;102486.29;;;8.40;45.76
52291;BME280;39663;45.432;28.050;2023-03-01T00:18:01;102485.43;;;8.42;46.03
52291;BME280;39663;45.432;28.050;2023-03-01T00:18:33;102486.39;;;8.30;45.37
52291;BME280;39663;45.432;28.050;2023-03-01T00:19:06;102487.05;;;8.05;48.08
52291;BME280;39663;45.432;28.050;2023-03-01T00:19:38;102489.04;;;8.30;47.80
52291;BME280;39663;45.432;28.050;2023-03-01T00:20:11;102488.53;;;7.90;46.92
52291;BME280;39663;45.432;28.050;2023-03-01T00:20:50;102487.97;;;8.08;47.94
52291;BME280;39663;45.432;28.050;2023-03-01T00:21:22;102488.31;;;8.00;46.47
52291;BME280;39663;45.432;28.050;2023-03-01T00:21:54;102489.39;;;8.28;45.93
52291;BME280;39663;45.432;28.050;2023-03-01T00:22:27;102492.54;;;8.55;45.72
52291;BME280;39663;45.432;28.050;2023-03-01T00:22:58;102492.50;;;7.82;46.66
52291;BME280;39663;45.432;28.050;2023-03-01T00:23:30;102495.10;;;7.90;46.89
52291;BME280;39663;45.432;28.050;2023-03-01T00:24:02;102495.60;;;8.17;47.87
52291;BME280;39663;45.432;28.050;2023-03-01T00:24:34;102495.64;;;7.94;46.65
52291;BME280;39663;45.432;28.050;2023-03-01T00:25:06;102495.08;;;8.24;46.46
52291;BME280;39663;45.432;28.050;2023-03-01T00:25:41;102496.16;;;8.41;46.33
52291;BME280;39663;45.432;28.050;2023-03-01T00:26:14;102496.65;;;8.46;46.29
52291;BME280;39663;45.432;28.050;2023-03-01T00:26:45;102495.89;;;8.39;47.48
52291;BME280;39663;45.432;28.050;2023-03-01T00:27:17;102495.48;;;8.28;46.75
52291;BME280;39663;45.432;28.050;2023-03-01T00:27:49;102494.70;;;8.17;47.98
52291;BME280;39663;45.432;28.050;2023-03-01T00:28:21;102491.88;;;8.69;45.80
52291;BME280;39663;45.432;28.050;2023-03-01T00:28:52;102494.24;;;8.32;45.89
52291;BME280;39663;45.432;28.050;2023-03-01T00:29:26;102495.83;;;8.41;46.07
52291;BME280;39663;45.432;28.050;2023-03-01T00:29:58;102491.89;;;8.58;46.09
52291;BME280;39663;45.432;28.050;2023-03-01T00:30:29;102493.45;;;8.64;45.72
52291;BME280;39663;45.432;28.050;2023-03-01T00:31:03;102494.53;;;8.52;48.03
52291;BME280;39663;45.432;28.050;2023-03-01T00:31:35;102491.46;;;8.52;46.86
52291;BME280;39663;45.432;28.050;2023-03-01T00:32:07;102490.99;;;8.47;48.29
52291;BME280;39663;45.432;28.050;2023-03-01T00:32:38;102490.23;;;8.39;47.62
52291;BME280;39663;45.432;28.050;2023-03-01T00:33:10;102488.55;;;8.53;48.00
52291;BME280;39663;45.432;28.050;2023-03-01T00:33:42;102487.43;;;8.56;47.81
52291;BME280;39663;45.432;28.050;2023-03-01T00:34:14;102485.03;;;8.86;47.83
52291;BME280;39663;45.432;28.050;2023-03-01T00:34:46;102482.96;;;8.63;46.27
52291;BME280;39663;45.432;28.050;2023-03-01T00:35:18;102481.49;;;8.75;47.29
52291;BME280;39663;45.432;28.050;2023-03-01T00:35:50;102476.03;;;8.77;44.75
52291;BME280;39663;45.432;28.050;2023-03-01T00:36:21;102477.88;;;8.83;46.99
52291;BME280;39663;45.432;28.050;2023-03-01T00:36:53;102473.64;;;8.62;46.10
52291;BME280;39663;45.432;28.050;2023-03-01T00:37:24;102469.51;;;8.83;45.16
52291;BME280;39663;45.432;28.050;2023-03-01T00:37:57;102468.59;;;8.83;46.22
52291;BME280;39663;45.432;28.050;2023-03-01T00:38:30;102466.93;;;8.20;45.83
52291;BME280;39663;45.432;28.050;2023-03-01T00:39:03;102462.70;;;8.39;47.39
52291;BME280;39663;45.432;28.050;2023-03-01T00:39:34;102458.15;;;8.48;46.51
52291;BME280;39663;45.432;28.050;2023-03-01T00:40:07;102458.16;;;8.52;46.31
52291;BME280;39663;45.432;28.050;2023-03-01T00:40:39;102456.09;;;8.75;46.90
52291;BME280;39663;45.432;28.050;2023-03-01T00:41:12;102455.79;;;8.18;45.97
52291;BME280;39663;45.432;28.050;2023-03-01T00:41:44;102455.55;;;8.33;46.37
52291;BME280;39663;45.432;28.050;2023-03-01T00:42:16;102457.15;;;8.39;46.62
52291;BME280;39663;45.432;28.050;2023-03-01T00:42:48;102456.62;;;8.68;45.67
52291;BME280;39663;45.432;28.050;2023-03-01T00:43:20;102456.64;;;8.28;45.20
52291;BME280;39663;45.432;28.050;2023-03-01T00:43:52;102460.83;;;7.78;45.35
52291;BME280;39663;45.432;28.050;2023-03-01T00:44:24;102463.00;;;8.14;47.57
52291;BME280;39663;45.432;28.050;2023-03-01T00:44:56;102463.80;;;8.05;45.28
52291;BME280;39663;45.432;28.050;2023-03-01T00:45:28;102470.23;;;8.14;46.49
52291;BME280;39663;45.432;28.050;2023-03-01T00:46:01;102468.29;;;7.38;45.59
52291;BME280;39663;45.432;28.050;2023-03-01T00:46:33;102470.16;;;8.03;47.46
52291;BME280;39663;45.432;28.050;2023-03-01T00:47:04;102469.62;;;7.94;44.72
52291;BME280;39663;45.432;28.050;2023-03-01T00:47:36;102467.19;;;8.10;46.02
52291;BME280;39663;45.432;28.050;2023-03-01T00:48:08;102465.58;;;8.20;47.48
52291;BME280;39663;45.432;28.050;2023-03-01T00:48:39;102465.75;;;8.15;48.51
52291;BME280;39663;45.432;28.050;2023-03-01T00:49:11;102463.00;;;7.70;46.23
52291;BME280;39663;45.432;28.050;2023-03-01T00:49:43;102459.42;;;7.88;46.46
52291;BME280;39663;45.432;28.050;2023-03-01T00:50:20;102459.84;;;7.96;47.02
52291;BME280;39663;45.432;28.050;2023-03-01T00:50:51;102452.64;;;8.45;44.88
52291;BME280;39663;45.432;28.050;2023-03-01T00:51:25;102453.23;;;8.03;44.37
52291;BME280;39663;45.432;28.050;2023-03-01T00:51:56;102452.71;;;8.29;45.23
52291;BME280;39663;45.432;28.050;2023-03-01T00:52:28;102454.76;;;7.86;46.63
52291;BME280;39663;45.432;28.050;2023-03-01T00:53:00;102457.69;;;8.10;47.96
52291;BME280;39663;45.432;28.050;2023-03-01T00:53:31;102458.01;;;8.10;45.88
52291;BME280;39663;45.432;28.050;2023-03-01T00:54:03;102456.95;;;8.03;44.65
52291;BME280;39663;45.432;28.050;2023-03-01T00:54:35;102458.93;;;8.39;44.54
52291;BME280;39663;45.432;28.050;2023-03-01T00:55:07;102461.09;;;7.87;45.66
52291;BME280;39663;45.432;28.050;2023-03-01T00:55:39;102464.85;;;7.81;48.86
52291;BME280;39663;45.432;28.050;2023-03-01T00:56:12;102461.77;;;7.54;47.65
52291;BME280;39663;45.432;28.050;2023-03-01T00:56:44;102462.24;;;7.95;45.95
52291;BME280;39663;45.432;28.050;2023-03-01T00:57:15;102464.86;;;7.78;48.96
52291;BME280;39663;45.432;28.050;2023-03-01T00:57:47;102461.22;;;7.91;47.54
52291;BME280;39663;45.432;28.050;2023-03-01T00:58:19;102460.29;;;8.28;47.23
52291;BME280;39663;45.432;28.050;2023-03-01T00:58:50;102456.72;;;8.28;47.55
52291;BME280;39663;45.432;28.050;2023-03-01T00:59:22;102454.23;;;8.41;47.68
52291;BME280;39663;45.432;28.050;2023-03-01T00:59:53;102452.10;;;8.47;45.16
52291;BME280;39663;45.432;28.050;2023-03-01T01:00:25;102452.05;;;8.23;46.64
52291;BME280;39663;45.432;28.050;2023-03-01T01:00:57;102452.87;;;7.42;46.81
52291;BME280;39663;45.432;28.050;2023-03-01T01:01:30;102449.16;;;7.75;48.21
52291;BME280;39663;45.432;28.050;2023-03-01T01:02:01;102450.45;;;8.12;46.82
52291;BME280;39663;45.432;28.050;2023-03-01T01:02:34;102445.55;;;7.93;47.49
52291;BME280;39663;45.432;28.050;2023-03-01T01:03:06;102446.80;;;8.10;46.88
52291;BME280;39663;45.432;28.050;2023-03-01T01:03:38;102443.31;;;8.34;47.40
52291;BME280;39663;45.432;28.050;2023-03-01T01:04:12;102444.05;;;8.11;45.38
52291;BME280;39663;45.432;28.050;2023-03-01T01:04:45;102443.54;;;8.11;46.67
52291;BME280;39663;45.432;28.050;2023-03-01T01:05:17;102442.62;;;8.37;45.79
52291;BME280;39663;45.432;28.050;2023-03-01T01:05:48;102445.27;;;8.20;44.73
52291;BME280;39663;45.432;28.050;2023-03-01T01:06:22;102447.94;;;8.14;44.76
52291;BME280;39663;45.432;28.050;2023-03-01T01:06:54;102445.47;;;8.02;44.09
52291;BME280;39663;45.432;28.050;2023-03-01T01:07:26;102446.38;;;8.28;44.76
52291;BME280;39663;45.432;28.050;2023-03-01T01:07:58;102451.75;;;6.88;46.14
52291;BME280;39663;45.432;28.050;2023-03-01T01:08:29;102451.76;;;7.48;49.14
52291;BME280;39663;45.432;28.050;2023-03-01T01:09:02;102447.79;;;7.88;46.35
52291;BME280;39663;45.432;28.050;2023-03-01T01:09:34;102446.44;;;7.84;44.66
52291;BME280;39663;45.432;28.050;2023-03-01T01:10:07;102446.19;;;7.89;46.59
52291;BME280;39663;45.432;28.050;2023-03-01T01:10:39;102447.70;;;8.00;47.51
52291;BME280;39663;45.432;28.050;2023-03-01T01:11:11;102447.76;;;7.62;45.67
52291;BME280;39663;45.432;28.050;2023-03-01T01:11:43;102447.87;;;7.60;46.71
52291;BME280;39663;45.432;28.050;2023-03-01T01:12:15;102447.69;;;7.63;46.57
52291;BME280;39663;45.432;28.050;2023-03-01T01:12:47;102446.80;;;7.77;47.77
52291;BME280;39663;45.432;28.050;2023-03-01T01:13:19;102449.59;;;7.56;47.35
52291;BME280;39663;45.432;28.050;2023-03-01T01:13:51;102448.67;;;7.49;46.23
52291;BME280;39663;45.432;28.050;2023-03-01T01:14:22;102448.06;;;7.72;46.80
52291;BME280;39663;45.432;28.050;2023-03-01T01:14:54;102448.17;;;7.53;47.95
52291;BME280;39663;45.432;28.050;2023-03-01T01:15:26;102449.67;;;7.56;47.26
52291;BME280;39663;45.432;28.050;2023-03-01T01:16:01;102449.05;;;7.27;46.70
52291;BME280;39663;45.432;28.050;2023-03-01T01:16:32;102446.73;;;7.40;48.79
52291;BME280;39663;45.432;28.050;2023-03-01T01:17:05;102446.82;;;7.68;46.81
52291;BME280;39663;45.432;28.050;2023-03-01T01:17:36;102448.02;;;7.72;48.89
52291;BME280;39663;45.432;28.050;2023-03-01T01:18:08;102448.01;;;6.83;47.09
52291;BME280;39663;45.432;28.050;2023-03-01T01:18:40;102447.83;;;7.12;48.91
52291;BME280;39663;45.432;28.050;2023-03-01T01:19:12;102446.87;;;7.49;48.54
52291;BME280;39663;45.432;28.050;2023-03-01T01:19:44;102450.49;;;7.10;49.15
52291;BME280;39663;45.432;28.050;2023-03-01T01:20:16;102450.65;;;7.34;48.65
52291;BME280;39663;45.432;28.050;2023-03-01T01:20:47;102449.20;;;7.46;46.62
52291;BME280;39663;45.432;28.050;2023-03-01T01:21:21;102449.93;;;7.41;47.33
52291;BME280;39663;45.432;28.050;2023-03-01T01:21:54;102448.87;;;7.60;45.62
52291;BME280;39663;45.432;28.050;2023-03-01T01:22:25;102446.27;;;7.19;47.34
52291;BME280;39663;45.432;28.050;2023-03-01T01:22:57;102445.44;;;7.51;48.77
52291;BME280;39663;45.432;28.050;2023-03-01T01:23:29;102443.80;;;7.03;47.66
52291;BME280;39663;45.432;28.050;2023-03-01T01:24:03;102440.29;;;6.29;46.79
52291;BME280;39663;45.432;28.050;2023-03-01T01:24:35;102438.46;;;7.25;48.99
52291;BME280;39663;45.432;28.050;2023-03-01T01:25:08;102436.91;;;7.73;48.03
52291;BME280;39663;45.432;28.050;2023-03-01T01:25:39;102433.30;;;7.94;45.75
52291;BME280;39663;45.432;28.050;2023-03-01T01:26:14;102434.52;;;7.62;45.82
52291;BME280;39663;45.432;28.050;2023-03-01T01:26:46;102435.71;;;7.61;48.22
52291;BME280;39663;45.432;28.050;2023-03-01T01:27:18;102435.56;;;8.05;48.05
52291;BME280;39663;45.432;28.050;2023-03-01T01:27:49;102435.73;;;7.61;45.69
52291;BME280;39663;45.432;28.050;2023-03-01T01:28:21;102438.58;;;7.94;47.37
52291;BME280;39663;45.432;28.050;2023-03-01T01:28:53;102437.50;;;7.83;48.69
52291;BME280;39663;45.432;28.050;2023-03-01T01:29:25;102441.02;;;8.39;47.88
52291;BME280;39663;45.432;28.050;2023-03-01T01:29:57;102437.61;;;7.47;46.12
52291;BME280;39663;45.432;28.050;2023-03-01T01:30:28;102434.98;;;7.45;47.38
52291;BME280;39663;45.432;28.050;2023-03-01T01:31:00;102437.79;;;7.64;48.22
52291;BME280;39663;45.432;28.050;2023-03-01T01:31:34;102438.40;;;7.88;48.30
52291;BME280;39663;45.432;28.050;2023-03-01T01:32:06;102436.12;;;7.66;45.80
52291;BME280;39663;45.432;28.050;2023-03-01T01:32:37;102437.61;;;7.57;46.86
52291;BME280;39663;45.432;28.050;2023-03-01T01:33:09;102438.30;;;7.64;47.15
52291;BME280;39663;45.432;28.050;2023-03-01T01:33:41;102438.40;;;7.56;45.83
52291;BME280;39663;45.432;28.050;2023-03-01T01:34:14;102442.09;;;7.78;45.92
52291;BME280;39663;45.432;28.050;2023-03-01T01:34:47;102440.09;;;8.02;47.35
52291;BME280;39663;45.432;28.050;2023-03-01T01:35:18;102438.88;;;7.96;46.65
52291;BME280;39663;45.432;28.050;2023-03-01T01:35:50;102437.85;;;8.00;46.94
52291;BME280;39663;45.432;28.050;2023-03-01T01:36:22;102435.21;;;8.19;46.42
52291;BME280;39663;45.432;28.050;2023-03-01T01:36:54;102433.57;;;7.67;45.60
52291;BME280;39663;45.432;28.050;2023-03-01T01:37:26;102433.93;;;8.07;45.76
52291;BME280;39663;45.432;28.050;2023-03-01T01:37:57;102437.51;;;8.07;47.32
52291;BME280;39663;45.432;28.050;2023-03-01T01:38:29;102431.66;;;8.32;45.47
52291;BME280;39663;45.432;28.050;2023-03-01T01:39:00;102433.62;;;7.80;47.40
52291;BME280;39663;45.432;28.050;2023-03-01T01:39:32;102428.78;;;8.21;46.18
52291;BME280;39663;45.432;28.050;2023-03-01T01:40:05;102429.24;;;8.25;48.21
52291;BME280;39663;45.432;28.050;2023-03-01T01:40:43;102428.62;;;8.33;47.10
52291;BME280;39663;45.432;28.050;2023-03-01T01:41:16;102429.94;;;7.90;48.23
52291;BME280;39663;45.432;28.050;2023-03-01T01:41:49;102430.94;;;8.02;46.51
52291;BME280;39663;45.432;28.050;2023-03-01T01:42:20;102428.74;;;7.93;46.12
52291;BME280;39663;45.432;28.050;2023-03-01T01:42:52;102427.23;;;8.26;46.35
52291;BME280;39663;45.432;28.050;2023-03-01T01:43:25;102430.28;;;7.69;46.41
52291;BME280;39663;45.432;28.050;2023-03-01T01:44:20;102432.98;;;7.89;46.39
52291;BME280;39663;45.432;28.050;2023-03-01T01:45:27;102433.91;;;7.17;46.49
52291;BME280;39663;45.432;28.050;2023-03-01T01:46:00;102433.06;;;7.45;48.99
52291;BME280;39663;45.432;28.050;2023-03-01T01:46:35;102432.92;;;7.41;47.77
52291;BME280;39663;45.432;28.050;2023-03-01T01:47:14;102431.76;;;7.30;47.19
52291;BME280;39663;45.432;28.050;2023-03-01T01:47:47;102429.40;;;7.43;48.26
52291;BME280;39663;45.432;28.050;2023-03-01T01:48:22;102430.58;;;7.54;48.50
52291;BME280;39663;45.432;28.050;2023-03-01T01:48:57;102427.71;;;7.04;46.77
52291;BME280;39663;45.432;28.050;2023-03-01T01:49:33;102425.31;;;7.37;47.96
52291;BME280;39663;45.432;28.050;2023-03-01T01:50:15;102419.83;;;7.78;47.29
52291;BME280;39663;45.432;28.050;2023-03-01T01:50:54;102418.91;;;7.07;47.69
52291;BME280;39663;45.432;28.050;2023-03-01T01:51:30;102418.60;;;7.23;48.31
52291;BME280;39663;45.432;28.050;2023-03-01T01:52:08;102419.09;;;7.29;46.87
52291;BME280;39663;45.432;28.050;2023-03-01T01:52:41;102422.98;;;7.06;49.35
52291;BME280;39663;45.432;28.050;2023-03-01T01:53:16;102421.48;;;6.39;48.03
52291;BME280;39663;45.432;28.050;2023-03-01T01:53:52;102425.85;;;5.64;50.03
52291;BME280;39663;45.432;28.050;2023-03-01T01:54:30;102422.93;;;5.74;49.44
52291;BME280;39663;45.432;28.050;2023-03-01T01:55:08;102421.93;;;5.29;50.94
52291;BME280;39663;45.432;28.050;2023-03-01T01:55:47;102419.17;;;4.92;50.53
52291;BME280;39663;45.432;28.050;2023-03-01T01:56:20;102421.32;;;4.62;52.14
52291;BME280;39663;45.432;28.050;2023-03-01T01:56:57;102416.73;;;4.59;52.15
52291;BME280;39663;45.432;28.050;2023-03-01T01:57:35;102412.72;;;4.55;52.85
52291;BME280;39663;45.432;28.050;2023-03-01T01:58:09;102413.52;;;4.46;53.38
52291;BME280;39663;45.432;28.050;2023-03-01T01:58:43;102413.88;;;4.75;52.58
52291;BME280;39663;45.432;28.050;2023-03-01T01:59:16;102413.78;;;4.54;52.95
52291;BME280;39663;45.432;28.050;2023-03-01T01:59:51;102417.19;;;4.34;53.98
52291;BME280;39663;45.432;28.050;2023-03-01T02:00:28;102416.09;;;4.81;54.13
52291;BME280;39663;45.432;28.050;2023-03-01T02:01:00;102417.44;;;5.68;53.31
52291;BME280;39663;45.432;28.050;2023-03-01T02:01:32;102417.36;;;5.88;52.71
52291;BME280;39663;45.432;28.050;2023-03-01T02:02:18;102417.79;;;6.07;51.39
52291;BME280;39663;45.432;28.050;2023-03-01T02:02:54;102417.64;;;6.49;50.09
52291;BME280;39663;45.432;28.050;2023-03-01T02:03:29;102417.07;;;6.32;50.44
52291;BME280;39663;45.432;28.050;2023-03-01T02:04:01;102418.82;;;5.95;50.19
52291;BME280;39663;45.432;28.050;2023-03-01T02:04:33;102421.49;;;6.30;51.80
52291;BME280;39663;45.432;28.050;2023-03-01T02:05:11;102419.50;;;6.47;50.37
52291;BME280;39663;45.432;28.050;2023-03-01T02:05:49;102416.51;;;6.42;49.50
52291;BME280;39663;45.432;28.050;2023-03-01T02:06:29;102418.81;;;6.48;49.86
52291;BME280;39663;45.432;28.050;2023-03-01T02:07:07;102418.59;;;6.36;49.07
52291;BME280;39663;45.432;28.050;2023-03-01T02:07:43;102418.65;;;5.92;49.80
52291;BME280;39663;45.432;28.050;2023-03-01T02:08:18;102416.75;;;6.52;49.10
52291;BME280;39663;45.432;28.050;2023-03-01T02:08:52;102418.46;;;6.56;49.72
52291;BME280;39663;45.432;28.050;2023-03-01T02:09:24;102418.69;;;6.58;51.00
52291;BME280;39663;45.432;28.050;2023-03-01T02:09:55;102416.84;;;6.87;50.18
52291;BME280;39663;45.432;28.050;2023-03-01T02:10:28;102415.01;;;6.80;48.68
52291;BME280;39663;45.432;28.050;2023-03-01T02:11:01;102417.84;;;6.41;49.22
52291;BME280;39663;45.432;28.050;2023-03-01T02:11:33;102416.15;;;6.43;49.55
52291;BME280;39663;45.432;28.050;2023-03-01T02:12:05;102414.34;;;5.94;50.08
52291;BME280;39663;45.432;28.050;2023-03-01T02:12:37;102415.59;;;6.30;49.63
52291;BME280;39663;45.432;28.050;2023-03-01T02:13:10;102415.16;;;5.85;49.71
52291;BME280;39663;45.432;28.050;2023-03-01T02:13:42;102413.56;;;4.91;51.87
52291;BME280;39663;45.432;28.050;2023-03-01T02:14:14;102413.22;;;5.50;51.16
52291;BME280;39663;45.432;28.050;2023-03-01T02:14:46;102412.89;;;5.75;50.46
52291;BME280;39663;45.432;28.050;2023-03-01T02:15:18;102414.08;;;5.22;51.26
52291;BME280;39663;45.432;28.050;2023-03-01T02:15:50;102416.93;;;5.38;53.29
52291;BME280;39663;45.432;28.050;2023-03-01T02:16:21;102414.64;;;4.94;52.03
52291;BME280;39663;45.432;28.050;2023-03-01T02:16:53;102413.21;;;4.79;52.67
52291;BME280;39663;45.432;28.050;2023-03-01T02:17:24;102413.45;;;5.27;51.90
52291;BME280;39663;45.432;28.050;2023-03-01T02:17:56;102412.75;;;5.65;52.87
52291;BME280;39663;45.432;28.050;2023-03-01T02:18:28;102410.74;;;5.44;51.35
52291;BME280;39663;45.432;28.050;2023-03-01T02:19:00;102410.71;;;5.82;53.88
52291;BME280;39663;45.432;28.050;2023-03-01T02:19:41;102408.09;;;6.00;51.15
52291;BME280;39663;45.432;28.050;2023-03-01T02:20:22;102402.04;;;6.53;50.40
52291;BME280;39663;45.432;28.050;2023-03-01T02:21:08;102404.53;;;6.63;51.41
52291;BME280;39663;45.432;28.050;2023-03-01T02:21:47;102405.23;;;6.32;52.69
52291;BME280;39663;45.432;28.050;2023-03-01T02:22:27;102400.81;;;6.59;50.44
52291;BME280;39663;45.432;28.050;2023-03-01T02:23:00;102400.05;;;6.80;49.83
52291;BME280;39663;45.432;28.050;2023-03-01T02:23:33;102401.17;;;6.92;49.53
52291;BME280;39663;45.432;28.050;2023-03-01T02:24:12;102402.08;;;6.97;48.40
52291;BME280;39663;45.432;28.050;2023-03-01T02:24:59;102403.07;;;6.72;48.70
52291;BME280;39663;45.432;28.050;2023-03-01T02:25:38;102404.33;;;6.98;48.50
52291;BME280;39663;45.432;28.050;2023-03-01T02:26:18;102406.40;;;6.82;48.16
52291;BME280;39663;45.432;28.050;2023-03-01T02:26:54;102404.19;;;6.70;48.55
52291;BME280;39663;45.432;28.050;2023-03-01T02:27:32;102406.21;;;6.34;50.75
52291;BME280;39663;45.432;28.050;2023-03-01T02:28:18;102403.88;;;6.40;49.03
52291;BME280;39663;45.432;28.050;2023-03-01T02:28:50;102401.01;;;5.36;51.21
52291;BME280;39663;45.432;28.050;2023-03-01T02:29:23;102400.89;;;4.56;52.78
52291;BME280;39663;45.432;28.050;2023-03-01T02:29:54;102396.86;;;4.77;52.15
52291;BME280;39663;45.432;28.050;2023-03-01T02:30:26;102396.54;;;4.86;52.08
52291;BME280;39663;45.432;28.050;2023-03-01T02:30:58;102393.92;;;5.25;51.66
52291;BME280;39663;45.432;28.050;2023-03-01T02:31:30;102392.55;;;5.17;51.71
52291;BME280;39663;45.432;28.050;2023-03-01T02:32:03;102391.33;;;5.38;51.33
52291;BME280;39663;45.432;28.050;2023-03-01T02:32:35;102392.99;;;5.78;50.43
52291;BME280;39663;45.432;28.050;2023-03-01T02:33:06;102393.58;;;5.53;50.04
52291;BME280;39663;45.432;28.050;2023-03-01T02:33:39;102394.47;;;5.64;51.30
52291;BME280;39663;45.432;28.050;2023-03-01T02:34:14;102396.97;;;6.08;49.30
52291;BME280;39663;45.432;28.050;2023-03-01T02:34:46;102396.23;;;6.26;49.16
52291;BME280;39663;45.432;28.050;2023-03-01T02:35:19;102401.20;;;5.95;49.79
52291;BME280;39663;45.432;28.050;2023-03-01T02:35:53;102401.16;;;5.05;51.11
52291;BME280;39663;45.432;28.050;2023-03-01T02:36:29;102401.28;;;5.05;51.58
52291;BME280;39663;45.432;28.050;2023-03-01T02:37:07;102403.75;;;5.25;51.47
52291;BME280;39663;45.432;28.050;2023-03-01T02:37:41;102401.38;;;5.29;50.49
52291;BME280;39663;45.432;28.050;2023-03-01T02:38:13;102402.70;;;5.66;50.28
52291;BME280;39663;45.432;28.050;2023-03-01T02:38:46;102402.74;;;5.42;49.87
52291;BME280;39663;45.432;28.050;2023-03-01T02:39:21;102402.15;;;6.14;49.00
52291;BME280;39663;45.432;28.050;2023-03-01T02:39:56;102398.32;;;6.02;49.18
52291;BME280;39663;45.432;28.050;2023-03-01T02:40:31;102397.79;;;6.12;48.46
52291;BME280;39663;45.432;28.050;2023-03-01T02:41:06;102399.37;;;6.29;48.74
52291;BME280;39663;45.432;28.050;2023-03-01T02:41:41;102396.35;;;5.56;49.21
52291;BME280;39663;45.432;28.050;2023-03-01T02:42:16;102398.39;;;5.85;48.70
52291;BME280;39663;45.432;28.050;2023-03-01T02:42:53;102397.28;;;5.17;50.23
52291;BME280;39663;45.432;28.050;2023-03-01T02:43:29;102401.63;;;5.33;49.44
52291;BME280;39663;45.432;28.050;2023-03-01T02:44:02;102402.99;;;5.25;49.72
52291;BME280;39663;45.432;28.050;2023-03-01T02:44:34;102401.20;;;5.15;50.63
52291;BME280;39663;45.432;28.050;2023-03-01T02:45:06;102404.74;;;5.71;50.05
52291;BME280;39663;45.432;28.050;2023-03-01T02:45:38;102401.77;;;5.65;48.17
52291;BME280;39663;45.432;28.050;2023-03-01T02:46:17;102402.16;;;4.87;49.63
52291;BME280;39663;45.432;28.050;2023-03-01T02:46:51;102398.39;;;5.25;50.77
52291;BME280;39663;45.432;28.050;2023-03-01T02:47:23;102398.45;;;5.91;47.45
52291;BME280;39663;45.432;28.050;2023-03-01T02:47:55;102398.04;;;6.03;47.18
52291;BME280;39663;45.432;28.050;2023-03-01T02:48:27;102394.08;;;5.98;46.75
52291;BME280;39663;45.432;28.050;2023-03-01T02:48:59;102391.19;;;6.12;47.37
52291;BME280;39663;45.432;28.050;2023-03-01T02:49:32;102391.27;;;6.34;47.24
52291;BME280;39663;45.432;28.050;2023-03-01T02:50:14;102388.44;;;6.12;47.36
52291;BME280;39663;45.432;28.050;2023-03-01T02:51:04;102386.54;;;6.22;47.24
52291;BME280;39663;45.432;28.050;2023-03-01T02:51:47;102385.23;;;6.31;49.29
52291;BME280;39663;45.432;28.050;2023-03-01T02:52:35;102385.71;;;6.62;49.48
52291;BME280;39663;45.432;28.050;2023-03-01T02:53:13;102382.81;;;6.80;45.90
52291;BME280;39663;45.432;28.050;2023-03-01T02:53:58;102383.33;;;6.33;46.26
52291;BME280;39663;45.432;28.050;2023-03-01T02:54:38;102382.78;;;6.30;46.12
52291;BME280;39663;45.432;28.050;2023-03-01T02:55:13;102381.29;;;6.10;45.59
52291;BME280;39663;45.432;28.050;2023-03-01T02:55:45;102382.50;;;6.42;47.52